Scottsmoor, Florida
Current Conditions -  °F | °C
As of 4:58 AM on Thursday 23 Oct 2014 (Local Time) from KTTS Reporting Station
Clear Clear  
Wind Chill: 68°   Ceiling: Unl
Heat Index: 68°   Visibility: 10mi
Dew Point: 58°   Wind: 7mph
Humidity: 71%   Direction: 50°NE
Pressure: 29.95"   Gusts: NA
Location:  28.77°N, 80.88°W
Report Text: KTTS 230858Z AUTO 05006KT 10SM CLR 20/14 A2995 RMK AO2 SLP145 T01990144 57008 VISNO RWY33 CHINO RWY33
Loading
Personal Weather Stations






























Interactive Weather Map
Tropical Storm Tracking
New forecast layout! Learn more

10-Day Weather Forecast

Advertisements
Track Severe Weather on mobile